sensor_id;sensor_type;location;lat;lon;timestamp;pressure;altitude;pressure_sealevel;temperature;humidity
12897;BME280;6516;35.028;32.372;2023-05-20T00:01:21;99455.78;;;16.41;93.59
12897;BME280;6516;35.028;32.372;2023-05-20T00:03:48;99458.50;;;16.40;94.00
12897;BME280;6516;35.028;32.372;2023-05-20T00:06:16;99455.19;;;16.35;93.92
12897;BME280;6516;35.028;32.372;2023-05-20T00:08:44;99451.59;;;16.36;94.15
12897;BME280;6516;35.028;32.372;2023-05-20T00:11:12;99448.88;;;16.37;93.69
12897;BME280;6516;35.028;32.372;2023-05-20T00:13:39;99448.03;;;16.37;94.74
12897;BME280;6516;35.028;32.372;2023-05-20T00:16:07;99443.56;;;16.37;94.68
12897;BME280;6516;35.028;32.372;2023-05-20T00:18:36;99440.97;;;16.36;94.58
12897;BME280;6516;35.028;32.372;2023-05-20T00:21:04;99438.97;;;16.41;94.90
12897;BME280;6516;35.028;32.372;2023-05-20T00:23:32;99437.88;;;16.45;95.19
12897;BME280;6516;35.028;32.372;2023-05-20T00:26:00;99434.19;;;16.47;94.95
12897;BME280;6516;35.028;32.372;2023-05-20T00:28:27;99433.34;;;16.47;95.04
12897;BME280;6516;35.028;32.372;2023-05-20T00:30:55;99436.84;;;16.47;95.04
12897;BME280;6516;35.028;32.372;2023-05-20T00:33:23;99427.00;;;16.49;95.00
12897;BME280;6516;35.028;32.372;2023-05-20T00:35:52;99427.84;;;16.50;95.08
12897;BME280;6516;35.028;32.372;2023-05-20T00:38:20;99426.94;;;16.51;95.07
12897;BME280;6516;35.028;32.372;2023-05-20T00:40:48;99418.09;;;16.50;95.19
12897;BME280;6516;35.028;32.372;2023-05-20T00:43:15;99426.13;;;16.49;95.41
12897;BME280;6516;35.028;32.372;2023-05-20T00:45:45;99418.09;;;16.50;94.96
12897;BME280;6516;35.028;32.372;2023-05-20T00:48:13;99422.66;;;16.48;94.65
12897;BME280;6516;35.028;32.372;2023-05-20T00:50:41;99417.47;;;16.45;94.89
12897;BME280;6516;35.028;32.372;2023-05-20T00:53:10;99408.75;;;16.43;94.39
12897;BME280;6516;35.028;32.372;2023-05-20T00:55:38;99409.81;;;16.39;94.69
12897;BME280;6516;35.028;32.372;2023-05-20T00:58:06;99402.88;;;16.37;94.72
12897;BME280;6516;35.028;32.372;2023-05-20T01:00:33;99401.22;;;16.34;94.57
12897;BME280;6516;35.028;32.372;2023-05-20T01:03:01;99402.94;;;16.35;94.72
12897;BME280;6516;35.028;32.372;2023-05-20T01:05:29;99402.22;;;16.32;94.69
12897;BME280;6516;35.028;32.372;2023-05-20T01:07:57;99400.50;;;16.31;94.59
12897;BME280;6516;35.028;32.372;2023-05-20T01:10:27;99399.22;;;16.22;94.56
12897;BME280;6516;35.028;32.372;2023-05-20T01:13:00;99397.56;;;16.20;94.56
12897;BME280;6516;35.028;32.372;2023-05-20T01:15:31;99403.03;;;16.17;94.85
12897;BME280;6516;35.028;32.372;2023-05-20T01:18:00;99399.75;;;16.12;94.50
12897;BME280;6516;35.028;32.372;2023-05-20T01:20:30;99394.59;;;16.09;94.68
12897;BME280;6516;35.028;32.372;2023-05-20T01:23:00;99394.72;;;16.07;94.97
12897;BME280;6516;35.028;32.372;2023-05-20T01:25:28;99399.06;;;16.08;94.93
12897;BME280;6516;35.028;32.372;2023-05-20T01:27:56;99396.16;;;16.13;94.79
12897;BME280;6516;35.028;32.372;2023-05-20T01:30:26;99406.78;;;16.13;95.38
12897;BME280;6516;35.028;32.372;2023-05-20T01:33:00;99404.22;;;16.11;95.34
12897;BME280;6516;35.028;32.372;2023-05-20T01:35:32;99401.47;;;16.13;95.57
12897;BME280;6516;35.028;32.372;2023-05-20T01:38:04;99405.75;;;16.15;95.65
12897;BME280;6516;35.028;32.372;2023-05-20T01:40:33;99398.59;;;16.17;95.47
12897;BME280;6516;35.028;32.372;2023-05-20T01:43:01;99397.56;;;16.20;95.79
12897;BME280;6516;35.028;32.372;2023-05-20T01:45:30;99390.38;;;16.22;95.24
12897;BME280;6516;35.028;32.372;2023-05-20T01:47:57;99390.16;;;16.26;95.74
12897;BME280;6516;35.028;32.372;2023-05-20T01:50:26;99392.63;;;16.29;95.64
12897;BME280;6516;35.028;32.372;2023-05-20T01:52:54;99387.84;;;16.36;95.56
12897;BME280;6516;35.028;32.372;2023-05-20T01:55:23;99392.53;;;16.48;94.92
12897;BME280;6516;35.028;32.372;2023-05-20T01:57:50;99386.59;;;16.60;94.00
12897;BME280;6516;35.028;32.372;2023-05-20T02:00:18;99383.13;;;16.58;94.05
12897;BME280;6516;35.028;32.372;2023-05-20T02:02:46;99383.31;;;16.55;93.89
12897;BME280;6516;35.028;32.372;2023-05-20T02:05:15;99391.59;;;16.49;93.89
12897;BME280;6516;35.028;32.372;2023-05-20T02:07:43;99387.38;;;16.45;93.96
12897;BME280;6516;35.028;32.372;2023-05-20T02:10:10;99387.56;;;16.42;94.50
12897;BME280;6516;35.028;32.372;2023-05-20T02:12:40;99385.97;;;16.38;94.36
12897;BME280;6516;35.028;32.372;2023-05-20T02:15:08;99383.41;;;16.36;94.25
12897;BME280;6516;35.028;32.372;2023-05-20T02:17:36;99395.66;;;16.39;94.41
12897;BME280;6516;35.028;32.372;2023-05-20T02:20:05;99387.50;;;16.43;94.10
12897;BME280;6516;35.028;32.372;2023-05-20T02:22:35;99384.91;;;16.42;94.25
12897;BME280;6516;35.028;32.372;2023-05-20T02:25:03;99385.28;;;16.34;93.81
12897;BME280;6516;35.028;32.372;2023-05-20T02:27:31;99386.53;;;16.27;94.06
12897;BME280;6516;35.028;32.372;2023-05-20T02:30:00;99386.53;;;16.27;94.06
12897;BME280;6516;35.028;32.372;2023-05-20T02:32:28;99385.06;;;16.22;95.03
12897;BME280;6516;35.028;32.372;2023-05-20T02:34:56;99388.59;;;16.22;95.29
12897;BME280;6516;35.028;32.372;2023-05-20T02:37:23;99389.34;;;16.24;95.09
12897;BME280;6516;35.028;32.372;2023-05-20T02:39:51;99395.69;;;16.22;95.01
12897;BME280;6516;35.028;32.372;2023-05-20T02:42:20;99392.34;;;16.18;95.21
12897;BME280;6516;35.028;32.372;2023-05-20T02:44:48;99400.16;;;16.21;95.48
12897;BME280;6516;35.028;32.372;2023-05-20T02:47:21;99401.88;;;16.22;95.63
12897;BME280;6516;35.028;32.372;2023-05-20T02:49:48;99402.56;;;16.26;96.19
12897;BME280;6516;35.028;32.372;2023-05-20T02:52:19;99405.75;;;16.32;96.48
12897;BME280;6516;35.028;32.372;2023-05-20T02:54:47;99403.97;;;16.33;95.80
12897;BME280;6516;35.028;32.372;2023-05-20T02:57:14;99398.31;;;16.39;95.63
12897;BME280;6516;35.028;32.372;2023-05-20T02:59:42;99406.25;;;16.40;95.45
12897;BME280;6516;35.028;32.372;2023-05-20T03:02:10;99397.41;;;16.40;95.34
12897;BME280;6516;35.028;32.372;2023-05-20T03:04:39;99403.50;;;16.42;95.67
12897;BME280;6516;35.028;32.372;2023-05-20T03:07:07;99402.56;;;16.43;95.80
12897;BME280;6516;35.028;32.372;2023-05-20T03:09:35;99414.81;;;16.45;95.98
12897;BME280;6516;35.028;32.372;2023-05-20T03:12:03;99420.75;;;16.50;95.85
12897;BME280;6516;35.028;32.372;2023-05-20T03:14:31;99417.06;;;16.53;96.19
12897;BME280;6516;35.028;32.372;2023-05-20T03:16:59;99422.91;;;16.59;96.47
12897;BME280;6516;35.028;32.372;2023-05-20T03:19:26;99432.38;;;16.65;96.52
12897;BME280;6516;35.028;32.372;2023-05-20T03:21:56;99419.69;;;16.70;96.69
12897;BME280;6516;35.028;32.372;2023-05-20T03:24:25;99428.25;;;16.75;95.80
12897;BME280;6516;35.028;32.372;2023-05-20T03:26:53;99435.97;;;16.79;95.36
12897;BME280;6516;35.028;32.372;2023-05-20T03:29:22;99436.50;;;16.86;96.02
12897;BME280;6516;35.028;32.372;2023-05-20T03:31:50;99445.09;;;16.91;95.57
12897;BME280;6516;35.028;32.372;2023-05-20T03:34:18;99442.03;;;16.98;95.36
12897;BME280;6516;35.028;32.372;2023-05-20T03:36:45;99441.41;;;17.09;95.05
12897;BME280;6516;35.028;32.372;2023-05-20T03:39:14;99448.88;;;17.18;94.73
12897;BME280;6516;35.028;32.372;2023-05-20T03:41:42;99449.84;;;17.32;94.50
12897;BME280;6516;35.028;32.372;2023-05-20T03:44:10;99443.09;;;17.42;93.40
12897;BME280;6516;35.028;32.372;2023-05-20T03:46:38;99447.72;;;17.54;92.13
12897;BME280;6516;35.028;32.372;2023-05-20T03:49:05;99450.44;;;17.68;92.38
12897;BME280;6516;35.028;32.372;2023-05-20T03:51:33;99460.41;;;17.80;92.05
12897;BME280;6516;35.028;32.372;2023-05-20T03:54:01;99457.72;;;17.96;91.90
12897;BME280;6516;35.028;32.372;2023-05-20T03:56:30;99446.03;;;18.12;89.67
12897;BME280;6516;35.028;32.372;2023-05-20T03:58:58;99446.81;;;18.28;89.73
12897;BME280;6516;35.028;32.372;2023-05-20T04:01:26;99444.34;;;18.41;88.28
12897;BME280;6516;35.028;32.372;2023-05-20T04:03:53;99448.16;;;18.51;86.79
12897;BME280;6516;35.028;32.372;2023-05-20T04:06:21;99449.59;;;18.70;85.88
12897;BME280;6516;35.028;32.372;2023-05-20T04:08:49;99454.16;;;18.82;84.28
12897;BME280;6516;35.028;32.372;2023-05-20T04:11:18;99449.97;;;19.06;80.73
12897;BME280;6516;35.028;32.372;2023-05-20T04:13:47;99452.53;;;19.36;78.07
12897;BME280;6516;35.028;32.372;2023-05-20T04:16:15;99453.13;;;19.53;75.86
12897;BME280;6516;35.028;32.372;2023-05-20T04:18:43;99454.56;;;19.59;75.84
12897;BME280;6516;35.028;32.372;2023-05-20T04:21:12;99453.63;;;19.73;74.31
12897;BME280;6516;35.028;32.372;2023-05-20T04:23:40;99457.97;;;19.88;74.08
12897;BME280;6516;35.028;32.372;2023-05-20T04:26:08;99456.41;;;19.98;73.73
12897;BME280;6516;35.028;32.372;2023-05-20T04:28:36;99452.53;;;20.16;73.19
12897;BME280;6516;35.028;32.372;2023-05-20T04:31:08;99450.06;;;20.25;72.54
12897;BME280;6516;35.028;32.372;2023-05-20T04:33:36;99442.63;;;20.55;70.58
12897;BME280;6516;35.028;32.372;2023-05-20T04:36:06;99436.53;;;20.78;69.20
12897;BME280;6516;35.028;32.372;2023-05-20T04:38:36;99444.00;;;20.98;68.46
12897;BME280;6516;35.028;32.372;2023-05-20T04:41:04;99429.66;;;21.12;68.99
12897;BME280;6516;35.028;32.372;2023-05-20T04:43:33;99435.22;;;21.45;67.84
12897;BME280;6516;35.028;32.372;2023-05-20T04:46:03;99437.94;;;21.68;66.34
12897;BME280;6516;35.028;32.372;2023-05-20T04:48:34;99451.09;;;22.18;64.94
12897;BME280;6516;35.028;32.372;2023-05-20T04:51:03;99438.78;;;22.61;61.59
12897;BME280;6516;35.028;32.372;2023-05-20T04:53:31;99435.19;;;23.39;61.73
12897;BME280;6516;35.028;32.372;2023-05-20T04:56:01;99436.84;;;24.05;59.41
12897;BME280;6516;35.028;32.372;2023-05-20T04:58:30;99443.31;;;24.54;56.35
12897;BME280;6516;35.028;32.372;2023-05-20T05:00:58;99436.84;;;24.25;53.83
12897;BME280;6516;35.028;32.372;2023-05-20T05:03:27;99439.84;;;24.84;53.01
12897;BME280;6516;35.028;32.372;2023-05-20T05:05:58;99440.69;;;25.54;51.84
12897;BME280;6516;35.028;32.372;2023-05-20T05:08:26;99439.91;;;25.72;50.28
12897;BME280;6516;35.028;32.372;2023-05-20T05:10:54;99435.97;;;26.14;50.07
12897;BME280;6516;35.028;32.372;2023-05-20T05:13:22;99431.28;;;26.35;48.87
12897;BME280;6516;35.028;32.372;2023-05-20T05:15:57;99435.94;;;26.71;48.26
12897;BME280;6516;35.028;32.372;2023-05-20T05:18:25;99432.81;;;27.13;48.58
12897;BME280;6516;35.028;32.372;2023-05-20T05:21:00;99437.03;;;26.78;48.97
12897;BME280;6516;35.028;32.372;2023-05-20T05:23:28;99438.34;;;26.55;48.55
12897;BME280;6516;35.028;32.372;2023-05-20T05:25:56;99431.69;;;27.05;47.34
12897;BME280;6516;35.028;32.372;2023-05-20T05:28:26;99438.81;;;27.43;47.00
12897;BME280;6516;35.028;32.372;2023-05-20T05:30:56;99436.66;;;26.54;47.79
12897;BME280;6516;35.028;32.372;2023-05-20T05:33:24;99441.78;;;26.67;47.42
12897;BME280;6516;35.028;32.372;2023-05-20T05:35:52;99435.75;;;27.29;47.34
12897;BME280;6516;35.028;32.372;2023-05-20T05:38:22;99430.03;;;27.41;45.60
12897;BME280;6516;35.028;32.372;2023-05-20T05:40:50;99433.81;;;27.48;46.05
12897;BME280;6516;35.028;32.372;2023-05-20T05:43:19;99429.78;;;27.35;45.87
12897;BME280;6516;35.028;32.372;2023-05-20T05:45:46;99427.03;;;27.89;44.87
12897;BME280;6516;35.028;32.372;2023-05-20T05:48:14;99426.19;;;27.88;45.16
12897;BME280;6516;35.028;32.372;2023-05-20T05:50:43;99425.41;;;27.96;43.76
12897;BME280;6516;35.028;32.372;2023-05-20T05:53:12;99430.06;;;27.76;43.26
12897;BME280;6516;35.028;32.372;2023-05-20T05:55:41;99428.94;;;27.52;43.43
12897;BME280;6516;35.028;32.372;2023-05-20T05:58:09;99430.88;;;26.95;45.22
12897;BME280;6516;35.028;32.372;2023-05-20T06:00:37;99433.72;;;26.29;46.69
12897;BME280;6516;35.028;32.372;2023-05-20T06:03:04;99440.31;;;25.77;48.98
12897;BME280;6516;35.028;32.372;2023-05-20T06:05:32;99436.53;;;25.10;52.15
12897;BME280;6516;35.028;32.372;2023-05-20T06:08:00;99445.69;;;24.68;52.66
12897;BME280;6516;35.028;32.372;2023-05-20T06:10:28;99444.81;;;24.27;54.16
12897;BME280;6516;35.028;32.372;2023-05-20T06:12:57;99446.31;;;23.77;55.64
12897;BME280;6516;35.028;32.372;2023-05-20T06:15:25;99440.97;;;23.66;56.82
12897;BME280;6516;35.028;32.372;2023-05-20T06:17:53;99445.16;;;23.59;57.33
12897;BME280;6516;35.028;32.372;2023-05-20T06:20:20;99447.09;;;23.57;57.68
12897;BME280;6516;35.028;32.372;2023-05-20T06:22:48;99447.50;;;23.53;57.53
12897;BME280;6516;35.028;32.372;2023-05-20T06:25:16;99447.38;;;23.54;57.44
12897;BME280;6516;35.028;32.372;2023-05-20T06:27:43;99443.22;;;23.50;57.23
12897;BME280;6516;35.028;32.372;2023-05-20T06:30:13;99446.50;;;23.54;57.34
12897;BME280;6516;35.028;32.372;2023-05-20T06:32:41;99450.78;;;23.56;57.16
12897;BME280;6516;35.028;32.372;2023-05-20T06:35:09;99460.94;;;23.53;57.15
12897;BME280;6516;35.028;32.372;2023-05-20T06:37:37;99451.75;;;23.55;57.09
12897;BME280;6516;35.028;32.372;2023-05-20T06:40:06;99450.41;;;23.61;57.21
12897;BME280;6516;35.028;32.372;2023-05-20T06:42:35;99450.25;;;23.73;56.91
12897;BME280;6516;35.028;32.372;2023-05-20T06:45:03;99445.34;;;23.78;56.63
12897;BME280;6516;35.028;32.372;2023-05-20T06:47:33;99440.81;;;23.90;56.50
12897;BME280;6516;35.028;32.372;2023-05-20T06:50:01;99448.63;;;23.93;56.36
12897;BME280;6516;35.028;32.372;2023-05-20T06:52:28;99441.41;;;23.93;55.97
12897;BME280;6516;35.028;32.372;2023-05-20T06:54:56;99440.28;;;23.96;56.84
12897;BME280;6516;35.028;32.372;2023-05-20T06:57:24;99442.88;;;23.86;57.06
12897;BME280;6516;35.028;32.372;2023-05-20T06:59:52;99442.75;;;23.88;56.90
12897;BME280;6516;35.028;32.372;2023-05-20T07:02:20;99443.72;;;23.98;57.25
12897;BME280;6516;35.028;32.372;2023-05-20T07:04:49;99444.16;;;24.34;56.91
12897;BME280;6516;35.028;32.372;2023-05-20T07:07:17;99438.50;;;24.58;55.28
12897;BME280;6516;35.028;32.372;2023-05-20T07:09:48;99432.00;;;24.81;54.54
12897;BME280;6516;35.028;32.372;2023-05-20T07:12:15;99429.78;;;25.16;52.66
12897;BME280;6516;35.028;32.372;2023-05-20T07:14:43;99425.72;;;25.31;52.72
12897;BME280;6516;35.028;32.372;2023-05-20T07:17:12;99423.91;;;25.31;52.48
12897;BME280;6516;35.028;32.372;2023-05-20T07:19:39;99423.28;;;25.86;51.53
12897;BME280;6516;35.028;32.372;2023-05-20T07:22:08;99421.91;;;26.30;47.78
12897;BME280;6516;35.028;32.372;2023-05-20T07:24:37;99427.63;;;26.92;48.44
12897;BME280;6516;35.028;32.372;2023-05-20T07:27:05;99426.44;;;27.04;48.40
12897;BME280;6516;35.028;32.372;2023-05-20T07:29:33;99427.78;;;26.90;47.56
12897;BME280;6516;35.028;32.372;2023-05-20T07:32:01;99425.28;;;26.60;49.32
12897;BME280;6516;35.028;32.372;2023-05-20T07:34:30;99424.59;;;27.04;48.72
12897;BME280;6516;35.028;32.372;2023-05-20T07:36:57;99428.88;;;27.44;48.79
12897;BME280;6516;35.028;32.372;2023-05-20T07:39:27;99427.63;;;27.83;46.97
12897;BME280;6516;35.028;32.372;2023-05-20T07:41:55;99426.19;;;28.06;46.22
12897;BME280;6516;35.028;32.372;2023-05-20T07:44:23;99421.94;;;27.86;45.91
12897;BME280;6516;35.028;32.372;2023-05-20T07:46:51;99419.53;;;27.29;47.40
12897;BME280;6516;35.028;32.372;2023-05-20T07:49:19;99418.25;;;26.86;48.36
12897;BME280;6516;35.028;32.372;2023-05-20T07:51:47;99427.88;;;26.14;50.53
12897;BME280;6516;35.028;32.372;2023-05-20T07:54:14;99419.16;;;25.82;50.58
12897;BME280;6516;35.028;32.372;2023-05-20T07:56:44;99423.91;;;25.41;52.69
12897;BME280;6516;35.028;32.372;2023-05-20T07:59:11;99423.13;;;25.59;53.03
12897;BME280;6516;35.028;32.372;2023-05-20T08:01:40;99417.38;;;26.02;51.79
12897;BME280;6516;35.028;32.372;2023-05-20T08:04:08;99423.00;;;26.46;50.39
12897;BME280;6516;35.028;32.372;2023-05-20T08:06:36;99422.09;;;26.93;48.65
12897;BME280;6516;35.028;32.372;2023-05-20T08:09:04;99428.47;;;27.39;48.97
12897;BME280;6516;35.028;32.372;2023-05-20T08:11:32;99431.34;;;27.82;47.81
12897;BME280;6516;35.028;32.372;2023-05-20T08:14:01;99430.91;;;28.04;46.38
12897;BME280;6516;35.028;32.372;2023-05-20T08:16:31;99438.72;;;28.42;45.91
12897;BME280;6516;35.028;32.372;2023-05-20T08:18:58;99438.41;;;28.45;45.51
12897;BME280;6516;35.028;32.372;2023-05-20T08:21:26;99437.56;;;28.70;45.24
12897;BME280;6516;35.028;32.372;2023-05-20T08:23:54;99426.91;;;28.94;45.09
12897;BME280;6516;35.028;32.372;2023-05-20T08:26:22;99420.63;;;29.11;44.18
12897;BME280;6516;35.028;32.372;2023-05-20T08:28:49;99421.81;;;28.91;43.76
12897;BME280;6516;35.028;32.372;2023-05-20T08:31:19;99425.94;;;29.28;44.05
12897;BME280;6516;35.028;32.372;2023-05-20T08:33:46;99428.84;;;29.35;43.41
12897;BME280;6516;35.028;32.372;2023-05-20T08:36:14;99424.44;;;29.34;43.90
12897;BME280;6516;35.028;32.372;2023-05-20T08:38:44;99424.28;;;29.43;42.05
12897;BME280;6516;35.028;32.372;2023-05-20T08:41:12;99426.59;;;29.64;42.16
12897;BME280;6516;35.028;32.372;2023-05-20T08:43:40;99428.22;;;29.49;42.01
12897;BME280;6516;35.028;32.372;2023-05-20T08:46:08;99427.66;;;29.71;42.69
12897;BME280;6516;35.028;32.372;2023-05-20T08:48:38;99426.59;;;29.64;42.68
12897;BME280;6516;35.028;32.372;2023-05-20T08:51:08;99425.09;;;29.69;43.16
12897;BME280;6516;35.028;32.372;2023-05-20T08:53:36;99433.97;;;29.87;43.27
12897;BME280;6516;35.028;32.372;2023-05-20T08:56:04;99435.38;;;29.99;42.76
12897;BME280;6516;35.028;32.372;2023-05-20T08:58:33;99434.75;;;30.13;42.40
12897;BME280;6516;35.028;32.372;2023-05-20T09:01:02;99431.50;;;30.18;42.16
12897;BME280;6516;35.028;32.372;2023-05-20T09:03:31;99433.19;;;30.11;42.26
12897;BME280;6516;35.028;32.372;2023-05-20T09:06:06;99434.59;;;30.39;41.97
12897;BME280;6516;35.028;32.372;2023-05-20T09:08:35;99435.66;;;29.88;42.30
12897;BME280;6516;35.028;32.372;2023-05-20T09:11:04;99434.59;;;29.32;43.28
12897;BME280;6516;35.028;32.372;2023-05-20T09:13:32;99438.72;;;28.85;44.66
12897;BME280;6516;35.028;32.372;2023-05-20T09:16:01;99436.31;;;28.39;45.62
12897;BME280;6516;35.028;32.372;2023-05-20T09:18:29;99436.94;;;28.15;47.02
12897;BME280;6516;35.028;32.372;2023-05-20T09:21:03;99434.59;;;28.38;46.73
12897;BME280;6516;35.028;32.372;2023-05-20T09:23:35;99429.91;;;27.60;47.76
12897;BME280;6516;35.028;32.372;2023-05-20T09:26:04;99441.94;;;27.12;49.86
12897;BME280;6516;35.028;32.372;2023-05-20T09:28:32;99434.66;;;26.75;50.15
12897;BME280;6516;35.028;32.372;2023-05-20T09:31:04;99436.25;;;26.40;51.55
12897;BME280;6516;35.028;32.372;2023-05-20T09:33:33;99438.41;;;26.17;51.57
12897;BME280;6516;35.028;32.372;2023-05-20T09:36:06;99432.56;;;26.03;52.39
12897;BME280;6516;35.028;32.372;2023-05-20T09:38:38;99425.00;;;25.87;52.28
12897;BME280;6516;35.028;32.372;2023-05-20T09:41:09;99417.53;;;26.10;52.58
12897;BME280;6516;35.028;32.372;2023-05-20T09:43:39;99411.66;;;26.52;50.63
12897;BME280;6516;35.028;32.372;2023-05-20T09:46:07;99414.69;;;26.86;50.76
12897;BME280;6516;35.028;32.372;2023-05-20T09:48:35;99420.53;;;27.28;49.78
12897;BME280;6516;35.028;32.372;2023-05-20T09:51:06;99425.13;;;27.72;47.00
12897;BME280;6516;35.028;32.372;2023-05-20T09:53:35;99422.69;;;27.96;45.95
12897;BME280;6516;35.028;32.372;2023-05-20T09:56:03;99410.53;;;28.17;46.55
12897;BME280;6516;35.028;32.372;2023-05-20T09:58:33;99416.97;;;28.34;46.79
12897;BME280;6516;35.028;32.372;2023-05-20T10:01:02;99404.59;;;28.49;46.16
12897;BME280;6516;35.028;32.372;2023-05-20T10:03:31;99410.75;;;28.84;44.49
12897;BME280;6516;35.028;32.372;2023-05-20T10:06:17;99407.22;;;29.09;43.89
12897;BME280;6516;35.028;32.372;2023-05-20T10:09:13;99394.59;;;29.34;43.85
12897;BME280;6516;35.028;32.372;2023-05-20T10:11:54;99403.53;;;29.60;41.77
12897;BME280;6516;35.028;32.372;2023-05-20T10:14:39;99398.81;;;29.70;42.28
12897;BME280;6516;35.028;32.372;2023-05-20T10:17:17;99391.91;;;29.91;40.74
12897;BME280;6516;35.028;32.372;2023-05-20T10:19:49;99391.03;;;29.91;39.70
12897;BME280;6516;35.028;32.372;2023-05-20T10:22:28;99389.72;;;30.03;40.29
12897;BME280;6516;35.028;32.372;2023-05-20T10:25:03;99390.09;;;30.16;40.74
12897;BME280;6516;35.028;32.372;2023-05-20T10:27:42;99387.16;;;30.09;41.19
12897;BME280;6516;35.028;32.372;2023-05-20T10:30:17;99382.94;;;30.07;40.73
12897;BME280;6516;35.028;32.372;2023-05-20T10:32:51;99381.56;;;30.11;39.96
12897;BME280;6516;35.028;32.372;2023-05-20T10:35:22;99378.50;;;29.98;40.63
12897;BME280;6516;35.028;32.372;2023-05-20T10:37:54;99382.91;;;29.99;40.57
12897;BME280;6516;35.028;32.372;2023-05-20T10:40:33;99387.66;;;30.05;41.13
12897;BME280;6516;35.028;32.372;2023-05-20T10:43:08;99395.81;;;29.97;41.01
12897;BME280;6516;35.028;32.372;2023-05-20T10:45:47;99392.75;;;29.84;40.99
12897;BME280;6516;35.028;32.372;2023-05-20T10:48:25;99392.78;;;29.50;41.21
12897;BME280;6516;35.028;32.372;2023-05-20T10:50:54;99392.53;;;29.69;41.40
12897;BME280;6516;35.028;32.372;2023-05-20T10:53:25;99394.78;;;29.90;41.37
12897;BME280;6516;35.028;32.372;2023-05-20T10:55:53;99391.72;;;29.85;40.91
12897;BME280;6516;35.028;32.372;2023-05-20T10:58:23;99387.81;;;30.03;41.11
12897;BME280;6516;35.028;32.372;2023-05-20T11:00:52;99376.78;;;30.05;40.30
12897;BME280;6516;35.028;32.372;2023-05-20T11:03:21;99379.22;;;30.48;39.67
12897;BME280;6516;35.028;32.372;2023-05-20T11:05:50;99383.13;;;30.45;39.00
12897;BME280;6516;35.028;32.372;2023-05-20T11:08:18;99370.72;;;30.27;40.15
12897;BME280;6516;35.028;32.372;2023-05-20T11:10:47;99374.28;;;30.43;39.83
12897;BME280;6516;35.028;32.372;2023-05-20T11:13:16;99378.53;;;30.38;39.55
12897;BME280;6516;35.028;32.372;2023-05-20T11:15:44;99365.47;;;30.17;40.30
12897;BME280;6516;35.028;32.372;2023-05-20T11:18:12;99377.50;;;30.15;39.99
12897;BME280;6516;35.028;32.372;2023-05-20T11:20:39;99372.22;;;30.05;40.68
12897;BME280;6516;35.028;32.372;2023-05-20T11:23:12;99378.84;;;30.03;41.69
12897;BME280;6516;35.028;32.372;2023-05-20T11:25:40;99379.66;;;30.03;40.60
12897;BME280;6516;35.028;32.372;2023-05-20T11:28:11;99385.44;;;29.92;39.62
12897;BME280;6516;35.028;32.372;2023-05-20T11:30:42;99382.41;;;30.11;40.01
12897;BME280;6516;35.028;32.372;2023-05-20T11:33:11;99382.59;;;30.18;40.04
12897;BME280;6516;35.028;32.372;2023-05-20T11:35:44;99387.47;;;29.98;40.32
12897;BME280;6516;35.028;32.372;2023-05-20T11:38:12;99391.38;;;29.96;40.38
12897;BME280;6516;35.028;32.372;2023-05-20T11:40:44;99385.28;;;29.94;40.33
12897;BME280;6516;35.028;32.372;2023-05-20T11:43:14;99393.72;;;29.83;39.83
12897;BME280;6516;35.028;32.372;2023-05-20T11:45:43;99400.50;;;29.71;40.86
12897;BME280;6516;35.028;32.372;2023-05-20T11:48:11;99387.78;;;29.71;40.62
12897;BME280;6516;35.028;32.372;2023-05-20T11:50:41;99396.31;;;29.92;41.38
12897;BME280;6516;35.028;32.372;2023-05-20T11:53:13;99382.41;;;29.95;41.35
12897;BME280;6516;35.028;32.372;2023-05-20T11:55:45;99385.50;;;30.16;40.76
12897;BME280;6516;35.028;32.372;2023-05-20T11:58:20;99384.66;;;30.16;40.58
12897;BME280;6516;35.028;32.372;2023-05-20T12:00:48;99391.22;;;29.81;41.97
12897;BME280;6516;35.028;32.372;2023-05-20T12:03:16;99389.66;;;29.87;41.83
12897;BME280;6516;35.028;32.372;2023-05-20T12:05:45;99394.66;;;30.15;40.64
12897;BME280;6516;35.028;32.372;2023-05-20T12:08:13;99397.06;;;30.18;40.29
12897;BME280;6516;35.028;32.372;2023-05-20T12:10:41;99394.13;;;30.12;40.31
12897;BME280;6516;35.028;32.372;2023-05-20T12:13:09;99395.47;;;30.08;40.28
12897;BME280;6516;35.028;32.372;2023-05-20T12:15:39;99409.06;;;30.08;41.04
12897;BME280;6516;35.028;32.372;2023-05-20T12:18:07;99408.00;;;30.01;40.61
12897;BME280;6516;35.028;32.372;2023-05-20T12:20:36;99407.72;;;30.12;39.93
12897;BME280;6516;35.028;32.372;2023-05-20T12:23:03;99411.13;;;30.22;41.19
12897;BME280;6516;35.028;32.372;2023-05-20T12:25:31;99404.34;;;30.26;40.09
12897;BME280;6516;35.028;32.372;2023-05-20T12:28:00;99410.03;;;29.83;40.98
12897;BME280;6516;35.028;32.372;2023-05-20T12:30:28;99416.31;;;29.34;41.84
12897;BME280;6516;35.028;32.372;2023-05-20T12:32:57;99400.34;;;29.72;41.53
12897;BME280;6516;35.028;32.372;2023-05-20T12:35:35;99395.47;;;29.84;41.70
12897;BME280;6516;35.028;32.372;2023-05-20T12:38:04;99388.53;;;29.48;41.95
12897;BME280;6516;35.028;32.372;2023-05-20T12:40:32;99391.31;;;29.64;42.09
12897;BME280;6516;35.028;32.372;2023-05-20T12:43:01;99398.72;;;29.54;41.88
12897;BME280;6516;35.028;32.372;2023-05-20T12:45:32;99392.84;;;29.58;41.72
12897;BME280;6516;35.028;32.372;2023-05-20T12:48:03;99387.53;;;29.49;42.17
12897;BME280;6516;35.028;32.372;2023-05-20T12:50:32;99389.88;;;29.44;41.51
12897;BME280;6516;35.028;32.372;2023-05-20T12:53:01;99392.56;;;29.36;42.11
12897;BME280;6516;35.028;32.372;2023-05-20T12:55:28;99396.38;;;29.17;42.83
12897;BME280;6516;35.028;32.372;2023-05-20T12:57:56;99400.34;;;29.31;42.42
12897;BME280;6516;35.028;32.372;2023-05-20T13:00:24;99391.00;;;29.25;41.56
12897;BME280;6516;35.028;32.372;2023-05-20T13:02:52;99400.25;;;29.15;42.32
12897;BME280;6516;35.028;32.372;2023-05-20T13:05:21;99402.59;;;29.02;42.70
12897;BME280;6516;35.028;32.372;2023-05-20T13:07:49;99399.91;;;29.10;42.58
12897;BME280;6516;35.028;32.372;2023-05-20T13:10:17;99403.53;;;28.93;42.91